Time;durP1;ratioP1;P1;durP2;ratioP2;P2;SDS_P1;SDS_P2;PMS_P1;PMS_P2;Temp;Humidity;BMP_temperature;BMP_pressure;BME280_temperature;BME280_humidity;BME280_pressure;Samples;Min_cycle;Max_cycle;Signal;HPM_P1;HPM_P2
2021/03/28 00:01:13;;;;;;;18.27;2.60;;;;;;;;;;4990614;28;20694;-65
2021/03/28 00:03:54;;;;;;;21.20;2.72;;;;;;;;;;4991317;28;20038;-65
2021/03/28 00:06:28;;;;;;;11.93;2.22;;;;;;;;;;4990731;28;20454;-65
2021/03/28 00:09:12;;;;;;;18.42;2.97;;;;;;;;;;4991073;28;20129;-64
2021/03/28 00:11:52;;;;;;;13.00;2.97;;;;;;;;;;4992136;28;20041;-65
2021/03/28 00:14:35;;;;;;;15.00;2.50;;;;;;;;;;4998385;28;20054;-66
2021/03/28 00:17:04;;;;;;;15.75;2.65;;;;;;;;;;4995456;28;20136;-65
2021/03/28 00:19:31;;;;;;;21.58;2.75;;;;;;;;;;4990066;28;20034;-66
2021/03/28 00:21:58;;;;;;;18.52;2.35;;;;;;;;;;4991492;28;20053;-66
2021/03/28 00:24:48;;;;;;;13.60;2.83;;;;;;;;;;5004997;28;20046;-65
2021/03/28 00:27:19;;;;;;;19.63;2.38;;;;;;;;;;4981798;28;20061;-65
2021/03/28 00:29:53;;;;;;;15.73;3.55;;;;;;;;;;4985106;28;20034;-65
2021/03/28 00:32:23;;;;;;;11.57;2.05;;;;;;;;;;4981381;28;20093;-65
2021/03/28 00:34:51;;;;;;;14.95;2.42;;;;;;;;;;4987356;28;20590;-65
2021/03/28 00:37:18;;;;;;;19.38;2.10;;;;;;;;;;4996654;28;20038;-66
2021/03/28 00:39:49;;;;;;;19.85;3.47;;;;;;;;;;4979604;28;20038;-65
2021/03/28 00:42:26;;;;;;;8.18;1.83;;;;;;;;;;4990186;28;20384;-65
2021/03/28 00:44:53;;;;;;;14.07;2.00;;;;;;;;;;5001145;28;20061;-65
2021/03/28 00:47:20;;;;;;;16.42;2.90;;;;;;;;;;4996741;28;20034;-66
2021/03/28 00:49:46;;;;;;;17.35;3.40;;;;;;;;;;5002005;28;20037;-65
2021/03/28 00:52:14;;;;;;;16.27;2.25;;;;;;;;;;4990378;28;20476;-65
2021/03/28 00:54:45;;;;;;;12.90;2.72;;;;;;;;;;5001822;28;20391;-64
2021/03/28 00:57:15;;;;;;;17.77;2.25;;;;;;;;;;4996839;28;20057;-65
2021/03/28 00:59:53;;;;;;;11.25;2.13;;;;;;;;;;4992750;28;20038;-64
2021/03/28 01:02:27;;;;;;;12.25;2.03;;;;;;;;;;4987274;28;20034;-65
2021/03/28 01:04:52;;;;;;;13.03;2.23;;;;;;;;;;4988764;28;20074;-65
2021/03/28 01:07:33;;;;;;;13.18;2.42;;;;;;;;;;4997578;28;20069;-65
2021/03/28 01:10:13;;;;;;;18.05;2.60;;;;;;;;;;4991155;28;20045;-65
2021/03/28 01:12:42;;;;;;;12.90;2.95;;;;;;;;;;4984098;28;20021;-66
2021/03/28 01:15:25;;;;;;;18.73;3.42;;;;;;;;;;4998570;28;20495;-65
2021/03/28 01:17:56;;;;;;;22.48;2.70;;;;;;;;;;5001982;28;20494;-64
2021/03/28 01:20:21;;;;;;;11.68;2.08;;;;;;;;;;4989760;28;20423;-65
2021/03/28 01:22:46;;;;;;;12.10;2.10;;;;;;;;;;5001092;28;20039;-65
2021/03/28 01:25:12;;;;;;;13.02;2.10;;;;;;;;;;4987938;28;20038;-65
2021/03/28 01:27:46;;;;;;;10.63;2.38;;;;;;;;;;4986917;28;20060;-65
2021/03/28 01:30:16;;;;;;;14.10;1.85;;;;;;;;;;4986103;28;20120;-65
2021/03/28 01:33:00;;;;;;;14.90;2.60;;;;;;;;;;4986437;28;20026;-65
2021/03/28 01:35:34;;;;;;;17.27;2.65;;;;;;;;;;4987385;28;20037;-65
2021/03/28 01:38:09;;;;;;;13.52;2.58;;;;;;;;;;4986428;28;20022;-65
2021/03/28 01:40:37;;;;;;;18.00;3.60;;;;;;;;;;4986546;28;20471;-66
2021/03/28 01:43:21;;;;;;;18.70;3.00;;;;;;;;;;4986090;28;20088;-65
2021/03/28 01:45:50;;;;;;;13.75;2.35;;;;;;;;;;4986441;28;20062;-65
2021/03/28 01:48:29;;;;;;;16.88;3.33;;;;;;;;;;4987038;28;20062;-65
2021/03/28 01:51:00;;;;;;;13.93;2.20;;;;;;;;;;4986022;28;20041;-65
2021/03/28 01:53:25;;;;;;;24.23;3.08;;;;;;;;;;4986144;28;20030;-65
2021/03/28 01:55:59;;;;;;;16.45;2.45;;;;;;;;;;4986513;28;20040;-65
2021/03/28 01:58:30;;;;;;;14.05;2.13;;;;;;;;;;4986235;28;20033;-65
2021/03/28 02:00:56;;;;;;;16.33;2.42;;;;;;;;;;4985652;28;20116;-65
2021/03/28 02:03:38;;;;;;;12.00;2.75;;;;;;;;;;4985555;28;20074;-65
2021/03/28 02:06:12;;;;;;;11.13;1.92;;;;;;;;;;4986100;28;20031;-65
2021/03/28 02:08:49;;;;;;;17.23;2.05;;;;;;;;;;4986239;28;20046;-65
2021/03/28 02:11:23;;;;;;;27.85;2.85;;;;;;;;;;4987051;28;20026;-65
2021/03/28 02:14:07;;;;;;;17.83;2.70;;;;;;;;;;4986084;28;20046;-65
2021/03/28 02:16:51;;;;;;;18.50;2.33;;;;;;;;;;4974957;28;20038;-65
2021/03/28 02:19:20;;;;;;;17.05;3.33;;;;;;;;;;4985703;28;20037;-65
2021/03/28 02:22:00;;;;;;;19.45;3.30;;;;;;;;;;4986374;28;20030;-65
2021/03/28 02:24:25;;;;;;;21.13;3.08;;;;;;;;;;4970217;28;20042;-65
2021/03/28 02:27:05;;;;;;;11.18;2.47;;;;;;;;;;4984859;28;20030;-65
2021/03/28 02:29:43;;;;;;;16.23;2.50;;;;;;;;;;4986788;28;20052;-65
2021/03/28 02:32:27;;;;;;;18.13;2.92;;;;;;;;;;4986185;28;20034;-65
2021/03/28 02:34:52;;;;;;;17.17;2.67;;;;;;;;;;4986520;28;20388;-65
2021/03/28 02:37:40;;;;;;;17.90;3.22;;;;;;;;;;4985323;28;20031;-65
2021/03/28 02:40:15;;;;;;;20.65;3.05;;;;;;;;;;4983271;28;20078;-65
2021/03/28 02:42:59;;;;;;;20.80;2.97;;;;;;;;;;4989245;28;20113;-67
2021/03/28 02:45:26;;;;;;;22.63;3.63;;;;;;;;;;4985484;28;20517;-65
2021/03/28 02:47:54;;;;;;;17.63;2.13;;;;;;;;;;4988913;28;20056;-65
2021/03/28 02:50:38;;;;;;;10.98;2.67;;;;;;;;;;4989669;28;20422;-65
2021/03/28 02:53:09;;;;;;;13.13;2.53;;;;;;;;;;4989582;28;20149;-65
2021/03/28 02:55:34;;;;;;;15.13;3.65;;;;;;;;;;4989913;28;20026;-65
2021/03/28 02:58:08;;;;;;;20.33;3.55;;;;;;;;;;4988954;28;20493;-65
2021/03/28 03:00:34;;;;;;;15.38;2.33;;;;;;;;;;4989158;28;20030;-65
2021/03/28 03:03:02;;;;;;;24.77;2.83;;;;;;;;;;4988950;28;20034;-66
2021/03/28 03:05:45;;;;;;;30.23;3.30;;;;;;;;;;4989091;28;20054;-65
2021/03/28 03:08:12;;;;;;;17.48;1.98;;;;;;;;;;4988648;28;20085;-65
2021/03/28 03:10:46;;;;;;;27.83;3.35;;;;;;;;;;4989572;28;20096;-65
2021/03/28 03:13:30;;;;;;;16.45;3.25;;;;;;;;;;4989081;28;20088;-65
2021/03/28 03:16:01;;;;;;;26.45;4.03;;;;;;;;;;4988824;28;20030;-65
2021/03/28 03:18:27;;;;;;;20.77;3.50;;;;;;;;;;4987431;28;20445;-65
2021/03/28 03:21:11;;;;;;;23.55;3.15;;;;;;;;;;4988465;28;20030;-65
2021/03/28 03:23:51;;;;;;;23.05;3.20;;;;;;;;;;4989393;28;20042;-65
2021/03/28 03:26:35;;;;;;;27.98;4.00;;;;;;;;;;4989176;28;20058;-66
2021/03/28 03:29:00;;;;;;;18.08;2.60;;;;;;;;;;4988958;28;20049;-65
2021/03/28 03:31:44;;;;;;;27.23;4.63;;;;;;;;;;4988514;28;20038;-65
2021/03/28 03:34:09;;;;;;;25.98;3.33;;;;;;;;;;4988803;28;20038;-65
2021/03/28 03:36:55;;;;;;;25.40;4.45;;;;;;;;;;4989399;28;20050;-66
2021/03/28 03:39:20;;;;;;;23.95;3.42;;;;;;;;;;4968687;28;20043;-65
2021/03/28 03:42:04;;;;;;;25.77;3.53;;;;;;;;;;4968969;28;20054;-65
2021/03/28 03:44:32;;;;;;;20.25;4.50;;;;;;;;;;4985352;28;20042;-66
2021/03/28 03:47:06;;;;;;;22.30;3.17;;;;;;;;;;4988045;28;20103;-65
2021/03/28 03:49:31;;;;;;;19.48;2.83;;;;;;;;;;4988015;28;20470;-65
2021/03/28 03:52:03;;;;;;;25.35;3.80;;;;;;;;;;4988356;28;20046;-65
2021/03/28 03:54:31;;;;;;;25.25;3.65;;;;;;;;;;4988571;28;20507;-66
2021/03/28 03:57:15;;;;;;;25.98;3.67;;;;;;;;;;4988434;28;20394;-65
2021/03/28 03:59:48;;;;;;;35.40;5.03;;;;;;;;;;4988024;28;20524;-66
2021/03/28 04:02:13;;;;;;;21.50;3.00;;;;;;;;;;4986922;28;20729;-65
2021/03/28 04:04:50;;;;;;;29.88;3.50;;;;;;;;;;4988143;28;20038;-65
2021/03/28 04:07:18;;;;;;;22.05;2.85;;;;;;;;;;4988991;28;20030;-66
2021/03/28 04:09:55;;;;;;;22.52;3.53;;;;;;;;;;4988523;28;20487;-65
2021/03/28 04:12:24;;;;;;;33.55;3.33;;;;;;;;;;4987630;28;20487;-65
2021/03/28 04:14:49;;;;;;;29.13;4.88;;;;;;;;;;4988144;28;20034;-65
2021/03/28 04:17:22;;;;;;;22.23;3.03;;;;;;;;;;4988520;28;20494;-65
2021/03/28 04:20:03;;;;;;;27.10;2.78;;;;;;;;;;4988731;28;20035;-65
2021/03/28 04:22:47;;;;;;;23.98;3.28;;;;;;;;;;4987615;28;20068;-65
2021/03/28 04:25:30;;;;;;;30.77;3.35;;;;;;;;;;4987280;28;20168;-65
2021/03/28 04:28:20;;;;;;;26.13;3.20;;;;;;;;;;4988130;28;20112;-65
2021/03/28 04:30:54;;;;;;;19.75;2.83;;;;;;;;;;4988184;28;20041;-66
2021/03/28 04:33:20;;;;;;;27.45;3.30;;;;;;;;;;4982880;28;20034;-65
2021/03/28 04:36:04;;;;;;;28.40;3.50;;;;;;;;;;4987429;28;20084;-65
2021/03/28 04:38:42;;;;;;;18.67;2.95;;;;;;;;;;4988320;28;20026;-65
2021/03/28 04:41:19;;;;;;;23.50;3.90;;;;;;;;;;4987924;28;20113;-65
2021/03/28 04:43:50;;;;;;;28.58;3.28;;;;;;;;;;4988252;28;20038;-65
2021/03/28 04:46:22;;;;;;;25.42;2.83;;;;;;;;;;4986689;28;20057;-65
2021/03/28 04:49:02;;;;;;;28.05;3.03;;;;;;;;;;4987523;28;20042;-66
2021/03/28 04:51:36;;;;;;;21.80;3.88;;;;;;;;;;4987676;28;20631;-65
2021/03/28 04:54:07;;;;;;;21.60;3.53;;;;;;;;;;4987530;28;20122;-65
2021/03/28 04:56:49;;;;;;;15.63;2.63;;;;;;;;;;4986449;28;20037;-65
2021/03/28 04:59:20;;;;;;;33.85;4.25;;;;;;;;;;4987097;28;20034;-65
2021/03/28 05:01:53;;;;;;;19.85;2.95;;;;;;;;;;4986967;28;20037;-66
2021/03/28 05:04:28;;;;;;;24.77;2.72;;;;;;;;;;4986285;28;20112;-65
2021/03/28 05:07:12;;;;;;;27.88;4.78;;;;;;;;;;4987494;28;20038;-65
2021/03/28 05:09:37;;;;;;;16.33;2.90;;;;;;;;;;4967489;28;20097;-65
2021/03/28 05:12:02;;;;;;;25.63;3.05;;;;;;;;;;4978918;28;20030;-65
2021/03/28 05:14:30;;;;;;;18.88;2.83;;;;;;;;;;4987372;28;20125;-65
2021/03/28 05:16:58;;;;;;;15.10;2.30;;;;;;;;;;4986657;28;20064;-65
2021/03/28 05:19:40;;;;;;;21.13;3.17;;;;;;;;;;4987071;28;20100;-65
2021/03/28 05:22:06;;;;;;;19.90;2.55;;;;;;;;;;4987646;28;20058;-66
2021/03/28 05:24:34;;;;;;;16.48;2.75;;;;;;;;;;4986903;28;20077;-65
2021/03/28 05:27:19;;;;;;;18.13;3.47;;;;;;;;;;4987345;28;20038;-65
2021/03/28 05:30:03;;;;;;;30.20;3.97;;;;;;;;;;4986908;28;20034;-65
2021/03/28 05:32:34;;;;;;;14.27;2.58;;;;;;;;;;4987048;28;20038;-65
2021/03/28 05:35:09;;;;;;;12.43;2.30;;;;;;;;;;4986808;28;20049;-65
2021/03/28 05:37:48;;;;;;;17.80;2.90;;;;;;;;;;4986902;28;20387;-65
2021/03/28 05:40:40;;;;;;;24.08;2.65;;;;;;;;;;4986104;28;20034;-66
2021/03/28 05:43:23;;;;;;;19.23;3.10;;;;;;;;;;4966742;28;20057;-65
2021/03/28 05:45:55;;;;;;;29.25;3.72;;;;;;;;;;4986269;28;20050;-66
2021/03/28 05:48:33;;;;;;;23.38;3.65;;;;;;;;;;4985931;28;21017;-66
2021/03/28 05:51:01;;;;;;;17.77;2.63;;;;;;;;;;4986755;28;20039;-65
2021/03/28 05:53:35;;;;;;;15.10;2.00;;;;;;;;;;4986855;28;20053;-66
2021/03/28 05:56:09;;;;;;;19.08;2.33;;;;;;;;;;4981529;28;20034;-65
2021/03/28 05:58:37;;;;;;;17.05;2.15;;;;;;;;;;4986733;28;20109;-65
2021/03/28 06:01:12;;;;;;;17.05;2.40;;;;;;;;;;4986126;28;20032;-65
2021/03/28 06:03:58;;;;;;;12.65;2.10;;;;;;;;;;4982209;28;20050;-66
2021/03/28 06:06:26;;;;;;;19.20;2.17;;;;;;;;;;4986324;28;20487;-66
2021/03/28 06:09:06;;;;;;;14.07;1.80;;;;;;;;;;4986003;28;20276;-66
2021/03/28 06:11:50;;;;;;;11.45;1.83;;;;;;;;;;4986596;28;20038;-65
2021/03/28 06:14:21;;;;;;;13.13;2.20;;;;;;;;;;4986167;28;20109;-65
2021/03/28 06:17:05;;;;;;;12.63;1.65;;;;;;;;;;4986098;28;20037;-65
2021/03/28 06:19:33;;;;;;;14.30;2.17;;;;;;;;;;4986631;28;20527;-66
2021/03/28 06:22:07;;;;;;;16.92;2.13;;;;;;;;;;4986239;28;20159;-65
2021/03/28 06:24:33;;;;;;;11.60;1.83;;;;;;;;;;4985844;28;20121;-65
2021/03/28 06:27:17;;;;;;;15.90;2.80;;;;;;;;;;4986471;28;20445;-65
2021/03/28 06:29:57;;;;;;;15.13;2.55;;;;;;;;;;4985900;28;20120;-65
2021/03/28 06:32:22;;;;;;;15.20;2.20;;;;;;;;;;4985502;28;20629;-66
2021/03/28 06:34:47;;;;;;;17.98;3.28;;;;;;;;;;4985464;28;20014;-65
2021/03/28 06:37:31;;;;;;;19.02;3.17;;;;;;;;;;4986339;28;20125;-66
2021/03/28 06:39:59;;;;;;;18.67;2.15;;;;;;;;;;4985758;28;20030;-66
2021/03/28 06:42:33;;;;;;;14.73;2.13;;;;;;;;;;4986255;28;20033;-66
2021/03/28 06:45:17;;;;;;;13.07;2.42;;;;;;;;;;4985025;28;20153;-65
2021/03/28 06:47:42;;;;;;;13.10;2.10;;;;;;;;;;4986253;28;20081;-65
2021/03/28 06:50:17;;;;;;;15.52;2.38;;;;;;;;;;4985671;28;20125;-65
2021/03/28 06:52:48;;;;;;;11.50;2.85;;;;;;;;;;4985945;28;20049;-66
2021/03/28 06:55:32;;;;;;;7.20;1.33;;;;;;;;;;4985409;28;20141;-65
2021/03/28 06:58:09;;;;;;;10.55;1.70;;;;;;;;;;4985337;28;20038;-65
2021/03/28 07:00:46;;;;;;;16.05;1.90;;;;;;;;;;4985354;28;20498;-65
2021/03/28 07:03:17;;;;;;;11.55;1.52;;;;;;;;;;4985920;28;20044;-66
2021/03/28 07:05:51;;;;;;;17.70;2.67;;;;;;;;;;4985486;28;20505;-65
2021/03/28 07:08:23;;;;;;;11.23;2.15;;;;;;;;;;4984890;28;20586;-66
2021/03/28 07:10:56;;;;;;;15.25;2.25;;;;;;;;;;4985680;28;20117;-66
2021/03/28 07:13:24;;;;;;;12.00;1.88;;;;;;;;;;4985980;28;20038;-66
2021/03/28 07:15:59;;;;;;;12.32;1.80;;;;;;;;;;4985952;28;20041;-66
2021/03/28 07:18:30;;;;;;;12.23;1.85;;;;;;;;;;4985540;28;20034;-65
2021/03/28 07:20:58;;;;;;;15.32;1.83;;;;;;;;;;4986074;28;20386;-65
2021/03/28 07:23:38;;;;;;;7.03;1.45;;;;;;;;;;4985119;28;20030;-65
2021/03/28 07:26:06;;;;;;;14.77;1.92;;;;;;;;;;4985488;28;20026;-65
2021/03/28 07:28:44;;;;;;;13.48;2.17;;;;;;;;;;4987727;28;20091;-65
2021/03/28 07:31:28;;;;;;;13.90;2.05;;;;;;;;;;4988501;28;20030;-65
2021/03/28 07:34:22;;;;;;;15.60;1.80;;;;;;;;;;4986735;28;20057;-65
2021/03/28 07:37:09;;;;;;;7.03;1.30;;;;;;;;;;4988830;28;20049;-65
2021/03/28 07:39:52;;;;;;;8.13;1.42;;;;;;;;;;4974486;28;20103;-65
2021/03/28 07:42:20;;;;;;;15.63;1.60;;;;;;;;;;4988366;28;20780;-66
2021/03/28 07:45:04;;;;;;;12.38;1.70;;;;;;;;;;4986513;28;20109;-66
2021/03/28 07:47:57;;;;;;;14.15;2.00;;;;;;;;;;4978215;28;20042;-66
2021/03/28 07:50:49;;;;;;;5.60;1.10;;;;;;;;;;4988504;28;20121;-66
2021/03/28 07:53:33;;;;;;;9.55;1.80;;;;;;;;;;4979128;28;20042;-66
2021/03/28 07:56:17;;;;;;;9.85;1.20;;;;;;;;;;4979266;28;20081;-65
2021/03/28 07:58:51;;;;;;;16.23;2.08;;;;;;;;;;4987629;28;20041;-66
2021/03/28 08:01:35;;;;;;;7.13;1.35;;;;;;;;;;4976808;28;20557;-65
2021/03/28 08:04:02;;;;;;;13.52;1.58;;;;;;;;;;4986792;28;20376;-65
2021/03/28 08:06:46;;;;;;;15.60;1.60;;;;;;;;;;4988998;28;20049;-66
2021/03/28 08:09:22;;;;;;;11.90;1.55;;;;;;;;;;4988933;28;20049;-65
2021/03/28 08:12:01;;;;;;;10.90;2.05;;;;;;;;;;4987799;28;20050;-66
2021/03/28 08:14:27;;;;;;;7.03;1.60;;;;;;;;;;4988341;28;20478;-66
2021/03/28 08:17:21;;;;;;;7.85;1.58;;;;;;;;;;4988516;28;20041;-66
2021/03/28 08:20:10;;;;;;;15.95;2.10;;;;;;;;;;4983494;28;20045;-66
2021/03/28 08:22:41;;;;;;;9.30;1.75;;;;;;;;;;4986532;28;20050;-65
2021/03/28 08:25:22;;;;;;;7.65;1.60;;;;;;;;;;4988036;28;20042;-65
2021/03/28 08:28:05;;;;;;;14.38;3.60;;;;;;;;;;4988675;28;20069;-66
2021/03/28 08:30:31;;;;;;;14.55;4.03;;;;;;;;;;4988261;28;20165;-66
2021/03/28 08:33:15;;;;;;;7.38;2.30;;;;;;;;;;4984003;28;20155;-65
2021/03/28 08:35:59;;;;;;;8.60;1.80;;;;;;;;;;4969382;28;20034;-66
2021/03/28 08:38:43;;;;;;;6.93;3.33;;;;;;;;;;4981719;28;20416;-66
2021/03/28 08:41:20;;;;;;;4.90;3.30;;;;;;;;;;4970717;28;20369;-66
2021/03/28 08:44:00;;;;;;;3.42;0.82;;;;;;;;;;4975150;28;20121;-66
2021/03/28 08:46:44;;;;;;;7.32;2.22;;;;;;;;;;4990276;28;20045;-65
2021/03/28 08:49:12;;;;;;;7.18;1.50;;;;;;;;;;4991241;28;20062;-66
2021/03/28 08:51:37;;;;;;;6.47;1.83;;;;;;;;;;4990166;28;20038;-66
2021/03/28 08:54:03;;;;;;;10.27;1.60;;;;;;;;;;4990883;28;20041;-66
2021/03/28 08:56:28;;;;;;;5.78;1.48;;;;;;;;;;4988959;28;20049;-66
2021/03/28 08:59:04;;;;;;;4.68;1.23;;;;;;;;;;4985139;28;20027;-65
2021/03/28 09:01:29;;;;;;;;;;;;;;;;;;4985681;28;20035;-66
2021/03/28 09:04:00;;;;;;;8.63;1.30;;;;;;;;;;5000339;28;19921;-66
2021/03/28 09:06:25;;;;;;;7.10;0.90;;;;;;;;;;5000591;28;20042;-66
2021/03/28 09:08:53;;;;;;;6.35;0.90;;;;;;;;;;4984099;28;20033;-66
2021/03/28 09:11:42;;;;;;;6.25;1.33;;;;;;;;;;4978315;28;20043;-66
2021/03/28 09:14:26;;;;;;;18.42;8.07;;;;;;;;;;4971789;28;20037;-66
2021/03/28 09:16:51;;;;;;;6.70;2.03;;;;;;;;;;4979477;28;20029;-66
2021/03/28 09:19:35;;;;;;;8.63;1.50;;;;;;;;;;4982753;28;20045;-66
2021/03/28 09:22:03;;;;;;;7.65;1.27;;;;;;;;;;4985372;28;20042;-65
2021/03/28 09:24:58;;;;;;;5.80;1.00;;;;;;;;;;4983578;28;20446;-65
2021/03/28 09:27:32;;;;;;;4.63;1.13;;;;;;;;;;4979739;28;20121;-66
2021/03/28 09:30:07;;;;;;;6.90;2.38;;;;;;;;;;4965492;28;20125;-66
2021/03/28 09:32:38;;;;;;;4.18;1.27;;;;;;;;;;4981745;28;20037;-66
2021/03/28 09:35:13;;;;;;;6.47;0.98;;;;;;;;;;4978572;28;20173;-66
2021/03/28 09:37:57;;;;;;;4.85;1.05;;;;;;;;;;4981889;28;20042;-66
2021/03/28 09:40:26;;;;;;;4.88;2.03;;;;;;;;;;4981074;28;20045;-65
2021/03/28 09:43:03;;;;;;;3.67;1.05;;;;;;;;;;4980960;28;20046;-66
2021/03/28 09:45:33;;;;;;;2.28;1.27;;;;;;;;;;4982426;28;20153;-66
2021/03/28 09:48:10;;;;;;;2.17;0.77;;;;;;;;;;4981902;28;20062;-66
2021/03/28 09:50:54;;;;;;;4.70;1.27;;;;;;;;;;4979136;28;20719;-66
2021/03/28 09:53:19;;;;;;;4.07;1.88;;;;;;;;;;4981146;28;20038;-66
2021/03/28 09:55:50;;;;;;;7.47;2.22;;;;;;;;;;4983426;28;20123;-66
2021/03/28 09:58:47;;;;;;;4.47;1.85;;;;;;;;;;4977117;28;20080;-66
2021/03/28 10:01:31;;;;;;;8.15;2.38;;;;;;;;;;4963270;28;20046;-67
2021/03/28 10:04:05;;;;;;;3.38;0.90;;;;;;;;;;4983089;28;20498;-66
2021/03/28 10:06:31;;;;;;;8.70;3.22;;;;;;;;;;4979397;28;20034;-66
2021/03/28 10:08:59;;;;;;;3.70;0.85;;;;;;;;;;4983246;28;20112;-66
2021/03/28 10:11:32;;;;;;;6.32;1.00;;;;;;;;;;4982621;28;20038;-66
2021/03/28 10:14:04;;;;;;;6.57;2.40;;;;;;;;;;4982837;28;20117;-66
2021/03/28 10:16:47;;;;;;;3.80;0.90;;;;;;;;;;4985873;28;20069;-66
2021/03/28 10:19:19;;;;;;;9.65;2.08;;;;;;;;;;4983224;28;20042;-66
2021/03/28 10:21:53;;;;;;;2.55;0.98;;;;;;;;;;4982301;28;20764;-66
2021/03/28 10:24:34;;;;;;;1.65;0.65;;;;;;;;;;4981499;28;20787;-66
2021/03/28 10:27:22;;;;;;;4.53;0.95;;;;;;;;;;4985739;28;20035;-66
2021/03/28 10:30:06;;;;;;;4.28;0.90;;;;;;;;;;4984580;28;20038;-66
2021/03/28 10:32:34;;;;;;;6.35;1.50;;;;;;;;;;4981007;28;20114;-66
2021/03/28 10:35:08;;;;;;;3.35;0.70;;;;;;;;;;4984391;28;20066;-66
2021/03/28 10:37:54;;;;;;;5.50;1.05;;;;;;;;;;4983114;28;20488;-66
2021/03/28 10:40:19;;;;;;;;;;;;;;;;;;4983454;28;20672;-66
2021/03/28 10:42:59;;;;;;;5.03;2.10;;;;;;;;;;4981879;28;19913;-66
2021/03/28 10:45:35;;;;;;;3.22;1.05;;;;;;;;;;4980623;28;20050;-66
2021/03/28 10:48:13;;;;;;;5.00;1.27;;;;;;;;;;4982214;28;20088;-65
2021/03/28 10:50:56;;;;;;;8.52;2.10;;;;;;;;;;4982281;28;20129;-66
2021/03/28 10:53:29;;;;;;;2.65;0.95;;;;;;;;;;4980596;28;20030;-66
2021/03/28 10:56:13;;;;;;;8.18;3.42;;;;;;;;;;4981676;28;20034;-65
2021/03/28 10:58:51;;;;;;;8.85;2.47;;;;;;;;;;4981690;28;20060;-66
2021/03/28 11:01:31;;;;;;;2.67;1.52;;;;;;;;;;4981034;28;20518;-66
2021/03/28 11:04:29;;;;;;;4.95;1.55;;;;;;;;;;4983747;28;20026;-66
2021/03/28 11:07:09;;;;;;;5.28;1.45;;;;;;;;;;4985111;28;20038;-66
2021/03/28 11:10:10;;;;;;;7.25;1.42;;;;;;;;;;4984896;28;20463;-66
2021/03/28 11:12:44;;;;;;;5.07;1.30;;;;;;;;;;4981919;28;20042;-66
2021/03/28 11:15:32;;;;;;;5.77;0.90;;;;;;;;;;4984623;28;20805;-66
2021/03/28 11:18:00;;;;;;;3.63;0.90;;;;;;;;;;4985283;28;20101;-66
2021/03/28 11:20:31;;;;;;;3.55;0.90;;;;;;;;;;4980544;28;20026;-66
2021/03/28 11:23:15;;;;;;;5.82;1.08;;;;;;;;;;4981793;28;20231;-66
2021/03/28 11:25:56;;;;;;;6.03;0.85;;;;;;;;;;4984592;28;20045;-66
2021/03/28 11:28:36;;;;;;;9.65;1.85;;;;;;;;;;4982389;28;20209;-66
2021/03/28 11:31:10;;;;;;;5.45;1.50;;;;;;;;;;4987208;28;20030;-66
2021/03/28 11:33:37;;;;;;;5.85;2.50;;;;;;;;;;4984627;28;20034;-66
2021/03/28 11:36:08;;;;;;;7.05;1.30;;;;;;;;;;4989679;28;20421;-66
2021/03/28 11:38:41;;;;;;;2.33;0.70;;;;;;;;;;4996967;28;20053;-66
2021/03/28 11:41:06;;;;;;;7.97;1.67;;;;;;;;;;4985537;28;20030;-66
2021/03/28 11:43:35;;;;;;;6.45;1.83;;;;;;;;;;4986588;28;20049;-66
2021/03/28 11:46:03;;;;;;;4.32;1.35;;;;;;;;;;4983913;28;20053;-66
2021/03/28 11:48:31;;;;;;;5.93;1.23;;;;;;;;;;4989923;28;20037;-66
2021/03/28 11:51:12;;;;;;;5.57;1.95;;;;;;;;;;4994210;28;20038;-66
2021/03/28 11:53:37;;;;;;;3.80;1.30;;;;;;;;;;4986582;28;20057;-66
2021/03/28 11:56:03;;;;;;;5.00;1.48;;;;;;;;;;4986552;28;20038;-66
2021/03/28 11:58:32;;;;;;;3.80;1.00;;;;;;;;;;4986236;28;20023;-66
2021/03/28 12:00:58;;;;;;;5.55;1.35;;;;;;;;;;4991372;28;20076;-66
2021/03/28 12:03:33;;;;;;;4.40;1.50;;;;;;;;;;4984988;28;20087;-66
2021/03/28 12:05:58;;;;;;;3.50;1.50;;;;;;;;;;4980324;28;20141;-66
2021/03/28 12:08:31;;;;;;;3.28;1.27;;;;;;;;;;4984640;28;20137;-66
2021/03/28 12:10:58;;;;;;;6.32;1.23;;;;;;;;;;4983282;28;20900;-66
2021/03/28 12:13:26;;;;;;;9.27;1.88;;;;;;;;;;4983754;28;20514;-66
2021/03/28 12:15:52;;;;;;;5.82;1.63;;;;;;;;;;4983688;28;20050;-66
2021/03/28 12:18:20;;;;;;;7.55;1.27;;;;;;;;;;4982593;28;20033;-66
2021/03/28 12:20:46;;;;;;;8.30;1.17;;;;;;;;;;4982804;28;20145;-66
2021/03/28 12:23:19;;;;;;;4.30;1.13;;;;;;;;;;4984007;28;20854;-66
2021/03/28 12:26:01;;;;;;;3.63;1.33;;;;;;;;;;4984124;28;20388;-66
2021/03/28 12:28:29;;;;;;;4.18;1.30;;;;;;;;;;4982817;28;20414;-66
2021/03/28 12:30:54;;;;;;;7.10;2.03;;;;;;;;;;4982153;28;20034;-66
2021/03/28 12:33:21;;;;;;;5.38;1.20;;;;;;;;;;4979080;28;20435;-66
2021/03/28 12:35:47;;;;;;;3.67;1.15;;;;;;;;;;4982913;28;20129;-66
2021/03/28 12:38:16;;;;;;;10.48;2.80;;;;;;;;;;4983134;28;20441;-66
2021/03/28 12:40:42;;;;;;;13.13;2.92;;;;;;;;;;4983587;28;20031;-66
2021/03/28 12:43:21;;;;;;;10.75;3.42;;;;;;;;;;4982633;28;20034;-67
2021/03/28 12:45:46;;;;;;;10.68;2.40;;;;;;;;;;4980329;28;20115;-66
2021/03/28 12:48:19;;;;;;;6.28;2.20;;;;;;;;;;4982008;28;20479;-66
2021/03/28 12:50:46;;;;;;;8.75;1.70;;;;;;;;;;4984226;28;20038;-66
2021/03/28 12:53:20;;;;;;;4.57;1.50;;;;;;;;;;4983816;28;20034;-66
2021/03/28 12:55:50;;;;;;;5.67;1.07;;;;;;;;;;4980597;28;20039;-66
2021/03/28 12:58:22;;;;;;;6.90;1.73;;;;;;;;;;4980720;28;20034;-66
2021/03/28 13:00:49;;;;;;;7.95;1.10;;;;;;;;;;4977363;28;20041;-66
2021/03/28 13:03:24;;;;;;;5.45;1.30;;;;;;;;;;4982315;28;20454;-66
2021/03/28 13:06:03;;;;;;;4.97;1.10;;;;;;;;;;4982288;28;20615;-66
2021/03/28 13:08:33;;;;;;;3.95;1.17;;;;;;;;;;4980364;28;20069;-66
2021/03/28 13:11:03;;;;;;;4.15;1.17;;;;;;;;;;4981484;28;20050;-66
2021/03/28 13:13:29;;;;;;;6.72;1.50;;;;;;;;;;4977016;28;20761;-66
2021/03/28 13:15:56;;;;;;;6.50;1.13;;;;;;;;;;4978742;28;20037;-66
2021/03/28 13:18:21;;;;;;;5.38;1.30;;;;;;;;;;4980443;28;20787;-66
2021/03/28 13:20:58;;;;;;;5.53;1.60;;;;;;;;;;4976490;28;20040;-66
2021/03/28 13:23:34;;;;;;;7.32;2.17;;;;;;;;;;4982622;28;20066;-66
2021/03/28 13:26:06;;;;;;;3.83;1.13;;;;;;;;;;4981643;28;20830;-66
2021/03/28 13:28:31;;;;;;;8.55;1.70;;;;;;;;;;4977436;28;20053;-66
2021/03/28 13:31:16;;;;;;;10.05;1.98;;;;;;;;;;4981254;28;20027;-66
2021/03/28 13:33:42;;;;;;;9.10;2.25;;;;;;;;;;4976318;28;20037;-66
2021/03/28 13:36:12;;;;;;;10.80;2.10;;;;;;;;;;4970281;28;20034;-66
2021/03/28 13:38:37;;;;;;;5.25;1.65;;;;;;;;;;4978257;28;20030;-65
2021/03/28 13:41:16;;;;;;;7.30;1.58;;;;;;;;;;4973055;28;20343;-66
2021/03/28 13:43:41;;;;;;;4.80;1.80;;;;;;;;;;4977398;28;20049;-66
2021/03/28 13:46:09;;;;;;;9.13;4.03;;;;;;;;;;4980489;28;20022;-66
2021/03/28 13:48:34;;;;;;;11.02;2.25;;;;;;;;;;4976998;28;20056;-66
2021/03/28 13:51:15;;;;;;;8.10;2.30;;;;;;;;;;4979682;28;20479;-66
2021/03/28 13:54:02;;;;;;;5.90;1.30;;;;;;;;;;4981576;28;20058;-66
2021/03/28 13:56:47;;;;;;;6.90;2.22;;;;;;;;;;4979578;28;20038;-66
2021/03/28 13:59:23;;;;;;;7.10;2.10;;;;;;;;;;4974749;28;20041;-66
2021/03/28 14:01:53;;;;;;;15.00;1.80;;;;;;;;;;4978121;28;20437;-66
2021/03/28 14:04:38;;;;;;;10.30;3.05;;;;;;;;;;4980083;28;20054;-66
2021/03/28 14:07:03;;;;;;;10.02;2.10;;;;;;;;;;4979511;28;20113;-66
2021/03/28 14:09:37;;;;;;;11.52;2.45;;;;;;;;;;4979608;28;20041;-66
2021/03/28 14:12:06;;;;;;;17.52;2.47;;;;;;;;;;4979067;28;20343;-66
2021/03/28 14:14:36;;;;;;;12.02;2.13;;;;;;;;;;4979164;28;20050;-66
2021/03/28 14:17:21;;;;;;;10.93;1.90;;;;;;;;;;4979740;28;20049;-66
2021/03/28 14:19:46;;;;;;;10.13;1.92;;;;;;;;;;4980088;28;20034;-66
2021/03/28 14:22:15;;;;;;;12.02;2.35;;;;;;;;;;4981276;28;20511;-66
2021/03/28 14:24:41;;;;;;;11.23;2.10;;;;;;;;;;4981477;28;20038;-66
2021/03/28 14:27:06;;;;;;;10.13;2.25;;;;;;;;;;4982415;28;20491;-66
2021/03/28 14:29:40;;;;;;;11.27;2.35;;;;;;;;;;4982182;28;20038;-66
2021/03/28 14:32:11;;;;;;;9.15;2.90;;;;;;;;;;4976429;28;20096;-66
2021/03/28 14:34:39;;;;;;;9.90;2.33;;;;;;;;;;4979680;28;20026;-66
2021/03/28 14:37:26;;;;;;;14.02;3.45;;;;;;;;;;4981488;28;20049;-66
2021/03/28 14:40:10;;;;;;;8.93;2.28;;;;;;;;;;4983618;28;20037;-67
2021/03/28 14:42:56;;;;;;;12.23;2.78;;;;;;;;;;4973885;28;20087;-66
2021/03/28 14:45:30;;;;;;;10.75;3.47;;;;;;;;;;4978614;28;20124;-66
2021/03/28 14:48:02;;;;;;;13.53;4.70;;;;;;;;;;4989261;28;20390;-66
2021/03/28 14:50:32;;;;;;;8.50;1.60;;;;;;;;;;4994725;28;20379;-66
2021/03/28 14:53:01;;;;;;;5.82;1.35;;;;;;;;;;4996123;28;20042;-66
2021/03/28 14:55:26;;;;;;;12.77;2.17;;;;;;;;;;4987271;28;20026;-66
2021/03/28 14:58:10;;;;;;;8.85;1.63;;;;;;;;;;4988040;28;20485;-66
2021/03/28 15:00:41;;;;;;;11.52;2.95;;;;;;;;;;4986554;28;20027;-66
2021/03/28 15:03:25;;;;;;;13.13;4.35;;;;;;;;;;4983058;28;20077;-66
2021/03/28 15:06:13;;;;;;;9.80;2.05;;;;;;;;;;4984490;28;20042;-66
2021/03/28 15:08:44;;;;;;;8.32;1.70;;;;;;;;;;4983892;28;20058;-66
2021/03/28 15:11:12;;;;;;;3.50;1.38;;;;;;;;;;4988722;28;20031;-66
2021/03/28 15:13:45;;;;;;;11.18;1.63;;;;;;;;;;4987110;28;20545;-66
2021/03/28 15:16:16;;;;;;;10.00;1.92;;;;;;;;;;4988545;28;20109;-66
2021/03/28 15:18:44;;;;;;;6.97;1.42;;;;;;;;;;4988597;28;20041;-66